sensor_id;sensor_type;location;lat;lon;timestamp;P1;durP1;ratioP1;P2;durP2;ratioP2
57651;SDS011;43480;53.116;6.734;2024-02-28T00:01:59;70.82;;;25.88;;
57651;SDS011;43480;53.116;6.734;2024-02-28T00:04:25;56.20;;;24.33;;
57651;SDS011;43480;53.116;6.734;2024-02-28T00:06:51;76.28;;;26.83;;
57651;SDS011;43480;53.116;6.734;2024-02-28T00:09:16;75.10;;;27.38;;
57651;SDS011;43480;53.116;6.734;2024-02-28T00:11:42;77.22;;;26.85;;
57651;SDS011;43480;53.116;6.734;2024-02-28T00:14:09;68.78;;;28.25;;
57651;SDS011;43480;53.116;6.734;2024-02-28T00:16:36;104.85;;;28.45;;
57651;SDS011;43480;53.116;6.734;2024-02-28T00:19:01;74.80;;;29.35;;
57651;SDS011;43480;53.116;6.734;2024-02-28T00:21:27;92.55;;;28.92;;
57651;SDS011;43480;53.116;6.734;2024-02-28T00:23:53;77.50;;;28.42;;
57651;SDS011;43480;53.116;6.734;2024-02-28T00:26:18;73.05;;;27.85;;
57651;SDS011;43480;53.116;6.734;2024-02-28T00:28:44;87.38;;;29.27;;
57651;SDS011;43480;53.116;6.734;2024-02-28T00:31:10;85.32;;;30.23;;
57651;SDS011;43480;53.116;6.734;2024-02-28T00:33:35;86.25;;;30.92;;
57651;SDS011;43480;53.116;6.734;2024-02-28T00:36:01;85.57;;;30.65;;
57651;SDS011;43480;53.116;6.734;2024-02-28T00:38:27;84.05;;;31.23;;
57651;SDS011;43480;53.116;6.734;2024-02-28T00:40:52;87.18;;;31.30;;
57651;SDS011;43480;53.116;6.734;2024-02-28T00:43:18;87.68;;;31.33;;
57651;SDS011;43480;53.116;6.734;2024-02-28T00:45:44;88.82;;;29.60;;
57651;SDS011;43480;53.116;6.734;2024-02-28T00:48:09;85.88;;;32.38;;
57651;SDS011;43480;53.116;6.734;2024-02-28T00:50:35;102.03;;;32.88;;
57651;SDS011;43480;53.116;6.734;2024-02-28T00:53:01;91.93;;;30.80;;
57651;SDS011;43480;53.116;6.734;2024-02-28T00:55:27;82.85;;;30.58;;
57651;SDS011;43480;53.116;6.734;2024-02-28T00:57:52;81.68;;;30.27;;
57651;SDS011;43480;53.116;6.734;2024-02-28T01:00:18;82.70;;;30.02;;
57651;SDS011;43480;53.116;6.734;2024-02-28T01:02:44;78.45;;;30.13;;
57651;SDS011;43480;53.116;6.734;2024-02-28T01:05:10;81.80;;;31.27;;
57651;SDS011;43480;53.116;6.734;2024-02-28T01:07:35;75.15;;;28.48;;
57651;SDS011;43480;53.116;6.734;2024-02-28T01:10:02;72.93;;;29.63;;
57651;SDS011;43480;53.116;6.734;2024-02-28T01:12:28;78.10;;;28.98;;
57651;SDS011;43480;53.116;6.734;2024-02-28T01:14:53;71.85;;;27.70;;
57651;SDS011;43480;53.116;6.734;2024-02-28T01:17:19;80.68;;;30.15;;
57651;SDS011;43480;53.116;6.734;2024-02-28T01:19:45;93.32;;;31.63;;
57651;SDS011;43480;53.116;6.734;2024-02-28T01:22:10;96.28;;;31.45;;
57651;SDS011;43480;53.116;6.734;2024-02-28T01:24:36;135.95;;;34.10;;
57651;SDS011;43480;53.116;6.734;2024-02-28T01:27:02;87.68;;;30.00;;
57651;SDS011;43480;53.116;6.734;2024-02-28T01:29:28;121.15;;;32.97;;
57651;SDS011;43480;53.116;6.734;2024-02-28T01:31:54;110.90;;;31.17;;
57651;SDS011;43480;53.116;6.734;2024-02-28T01:34:20;86.57;;;30.52;;
57651;SDS011;43480;53.116;6.734;2024-02-28T01:36:46;88.47;;;28.35;;
57651;SDS011;43480;53.116;6.734;2024-02-28T01:39:13;90.28;;;30.25;;
57651;SDS011;43480;53.116;6.734;2024-02-28T01:41:38;96.93;;;31.92;;
57651;SDS011;43480;53.116;6.734;2024-02-28T01:44:04;76.78;;;30.27;;
57651;SDS011;43480;53.116;6.734;2024-02-28T01:46:30;133.00;;;30.27;;
57651;SDS011;43480;53.116;6.734;2024-02-28T01:48:57;109.47;;;33.88;;
57651;SDS011;43480;53.116;6.734;2024-02-28T01:51:24;97.95;;;32.35;;
57651;SDS011;43480;53.116;6.734;2024-02-28T01:53:52;112.28;;;34.55;;
57651;SDS011;43480;53.116;6.734;2024-02-28T01:56:19;103.60;;;32.00;;
57651;SDS011;43480;53.116;6.734;2024-02-28T01:58:46;87.65;;;29.02;;
57651;SDS011;43480;53.116;6.734;2024-02-28T02:01:15;88.25;;;30.13;;
57651;SDS011;43480;53.116;6.734;2024-02-28T02:03:45;88.63;;;31.25;;
57651;SDS011;43480;53.116;6.734;2024-02-28T02:06:11;96.43;;;34.67;;
57651;SDS011;43480;53.116;6.734;2024-02-28T02:08:37;88.80;;;32.17;;
57651;SDS011;43480;53.116;6.734;2024-02-28T02:11:04;89.95;;;32.40;;
57651;SDS011;43480;53.116;6.734;2024-02-28T02:13:30;77.22;;;27.05;;
57651;SDS011;43480;53.116;6.734;2024-02-28T02:15:56;83.32;;;29.90;;
57651;SDS011;43480;53.116;6.734;2024-02-28T02:18:22;80.88;;;28.80;;
57651;SDS011;43480;53.116;6.734;2024-02-28T02:20:49;75.25;;;29.40;;
57651;SDS011;43480;53.116;6.734;2024-02-28T02:23:19;80.60;;;28.98;;
57651;SDS011;43480;53.116;6.734;2024-02-28T02:25:45;86.10;;;29.52;;
57651;SDS011;43480;53.116;6.734;2024-02-28T02:28:14;75.00;;;28.70;;
57651;SDS011;43480;53.116;6.734;2024-02-28T02:30:40;62.28;;;27.75;;
57651;SDS011;43480;53.116;6.734;2024-02-28T02:33:07;67.97;;;25.52;;
57651;SDS011;43480;53.116;6.734;2024-02-28T02:35:33;62.97;;;25.85;;
57651;SDS011;43480;53.116;6.734;2024-02-28T02:37:59;63.95;;;24.42;;
57651;SDS011;43480;53.116;6.734;2024-02-28T02:40:25;56.30;;;25.05;;
57651;SDS011;43480;53.116;6.734;2024-02-28T02:42:51;54.53;;;22.92;;
57651;SDS011;43480;53.116;6.734;2024-02-28T02:45:17;54.60;;;26.10;;
57651;SDS011;43480;53.116;6.734;2024-02-28T02:47:43;56.58;;;23.80;;
57651;SDS011;43480;53.116;6.734;2024-02-28T02:50:11;53.63;;;23.88;;
57651;SDS011;43480;53.116;6.734;2024-02-28T02:52:37;52.95;;;23.52;;
57651;SDS011;43480;53.116;6.734;2024-02-28T02:55:03;56.22;;;23.65;;
57651;SDS011;43480;53.116;6.734;2024-02-28T02:57:29;56.05;;;23.98;;
57651;SDS011;43480;53.116;6.734;2024-02-28T02:59:56;55.58;;;22.98;;
57651;SDS011;43480;53.116;6.734;2024-02-28T03:02:22;52.40;;;24.02;;
57651;SDS011;43480;53.116;6.734;2024-02-28T03:04:47;53.00;;;24.60;;
57651;SDS011;43480;53.116;6.734;2024-02-28T03:07:13;63.03;;;24.27;;
57651;SDS011;43480;53.116;6.734;2024-02-28T03:09:39;56.45;;;24.70;;
57651;SDS011;43480;53.116;6.734;2024-02-28T03:12:04;52.17;;;24.10;;
57651;SDS011;43480;53.116;6.734;2024-02-28T03:14:30;62.33;;;25.60;;
57651;SDS011;43480;53.116;6.734;2024-02-28T03:16:56;62.53;;;26.23;;
57651;SDS011;43480;53.116;6.734;2024-02-28T03:19:21;59.40;;;25.70;;
57651;SDS011;43480;53.116;6.734;2024-02-28T03:21:47;61.47;;;26.67;;
57651;SDS011;43480;53.116;6.734;2024-02-28T03:24:13;60.53;;;25.92;;
57651;SDS011;43480;53.116;6.734;2024-02-28T03:26:39;56.75;;;25.33;;
57651;SDS011;43480;53.116;6.734;2024-02-28T03:29:04;53.60;;;23.50;;
57651;SDS011;43480;53.116;6.734;2024-02-28T03:31:30;52.85;;;24.98;;
57651;SDS011;43480;53.116;6.734;2024-02-28T03:33:56;53.63;;;24.55;;
57651;SDS011;43480;53.116;6.734;2024-02-28T03:36:21;57.33;;;24.48;;
57651;SDS011;43480;53.116;6.734;2024-02-28T03:38:47;54.50;;;24.45;;
57651;SDS011;43480;53.116;6.734;2024-02-28T03:41:13;52.40;;;24.73;;
57651;SDS011;43480;53.116;6.734;2024-02-28T03:43:39;56.58;;;24.38;;
57651;SDS011;43480;53.116;6.734;2024-02-28T03:46:04;53.83;;;24.00;;
57651;SDS011;43480;53.116;6.734;2024-02-28T03:48:30;55.80;;;26.20;;
57651;SDS011;43480;53.116;6.734;2024-02-28T03:50:55;56.13;;;26.30;;
57651;SDS011;43480;53.116;6.734;2024-02-28T03:53:21;60.38;;;26.75;;
57651;SDS011;43480;53.116;6.734;2024-02-28T03:55:47;51.13;;;25.58;;
57651;SDS011;43480;53.116;6.734;2024-02-28T03:58:12;58.00;;;25.25;;
57651;SDS011;43480;53.116;6.734;2024-02-28T04:00:38;61.40;;;26.40;;
57651;SDS011;43480;53.116;6.734;2024-02-28T04:03:05;60.58;;;27.25;;
57651;SDS011;43480;53.116;6.734;2024-02-28T04:05:30;50.80;;;25.45;;
57651;SDS011;43480;53.116;6.734;2024-02-28T04:07:56;55.55;;;25.77;;
57651;SDS011;43480;53.116;6.734;2024-02-28T04:10:22;60.38;;;24.92;;
57651;SDS011;43480;53.116;6.734;2024-02-28T04:12:48;54.72;;;24.05;;
57651;SDS011;43480;53.116;6.734;2024-02-28T04:15:14;51.05;;;24.65;;
57651;SDS011;43480;53.116;6.734;2024-02-28T04:17:40;58.95;;;26.33;;
57651;SDS011;43480;53.116;6.734;2024-02-28T04:20:12;53.40;;;26.27;;
57651;SDS011;43480;53.116;6.734;2024-02-28T04:22:38;56.50;;;25.30;;
57651;SDS011;43480;53.116;6.734;2024-02-28T04:25:04;54.58;;;25.42;;
57651;SDS011;43480;53.116;6.734;2024-02-28T04:27:30;56.05;;;26.40;;
57651;SDS011;43480;53.116;6.734;2024-02-28T04:29:56;58.28;;;24.52;;
57651;SDS011;43480;53.116;6.734;2024-02-28T04:32:22;58.03;;;25.77;;
57651;SDS011;43480;53.116;6.734;2024-02-28T04:34:47;48.83;;;23.63;;
57651;SDS011;43480;53.116;6.734;2024-02-28T04:37:13;54.97;;;25.67;;
57651;SDS011;43480;53.116;6.734;2024-02-28T04:39:39;49.28;;;25.40;;
57651;SDS011;43480;53.116;6.734;2024-02-28T04:42:05;49.55;;;25.05;;
57651;SDS011;43480;53.116;6.734;2024-02-28T04:44:31;49.88;;;23.30;;
57651;SDS011;43480;53.116;6.734;2024-02-28T04:46:57;54.58;;;24.70;;
57651;SDS011;43480;53.116;6.734;2024-02-28T04:49:22;56.95;;;24.80;;
57651;SDS011;43480;53.116;6.734;2024-02-28T04:51:48;53.40;;;24.20;;
57651;SDS011;43480;53.116;6.734;2024-02-28T04:54:14;51.13;;;25.17;;
57651;SDS011;43480;53.116;6.734;2024-02-28T04:56:42;54.72;;;25.85;;
57651;SDS011;43480;53.116;6.734;2024-02-28T04:59:11;47.90;;;23.73;;
57651;SDS011;43480;53.116;6.734;2024-02-28T05:01:40;53.28;;;25.23;;
57651;SDS011;43480;53.116;6.734;2024-02-28T05:04:07;49.20;;;23.90;;
57651;SDS011;43480;53.116;6.734;2024-02-28T05:06:33;49.90;;;24.13;;
57651;SDS011;43480;53.116;6.734;2024-02-28T05:08:59;49.50;;;24.23;;
57651;SDS011;43480;53.116;6.734;2024-02-28T05:11:24;50.28;;;23.23;;
57651;SDS011;43480;53.116;6.734;2024-02-28T05:13:50;54.13;;;25.13;;
57651;SDS011;43480;53.116;6.734;2024-02-28T05:16:16;49.38;;;23.67;;
57651;SDS011;43480;53.116;6.734;2024-02-28T05:18:43;50.17;;;24.50;;
57651;SDS011;43480;53.116;6.734;2024-02-28T05:21:10;52.83;;;25.75;;
57651;SDS011;43480;53.116;6.734;2024-02-28T05:23:36;47.97;;;24.88;;
57651;SDS011;43480;53.116;6.734;2024-02-28T05:26:02;45.90;;;23.48;;
57651;SDS011;43480;53.116;6.734;2024-02-28T05:28:29;51.17;;;24.85;;
57651;SDS011;43480;53.116;6.734;2024-02-28T05:30:56;48.45;;;25.42;;
57651;SDS011;43480;53.116;6.734;2024-02-28T05:33:22;50.15;;;24.25;;
57651;SDS011;43480;53.116;6.734;2024-02-28T05:35:47;47.85;;;22.85;;
57651;SDS011;43480;53.116;6.734;2024-02-28T05:38:13;52.20;;;24.92;;
57651;SDS011;43480;53.116;6.734;2024-02-28T05:40:41;48.28;;;25.10;;
57651;SDS011;43480;53.116;6.734;2024-02-28T05:43:07;49.45;;;25.50;;
57651;SDS011;43480;53.116;6.734;2024-02-28T05:45:33;46.17;;;22.42;;
57651;SDS011;43480;53.116;6.734;2024-02-28T05:47:58;49.97;;;21.67;;
57651;SDS011;43480;53.116;6.734;2024-02-28T05:50:24;44.63;;;22.73;;
57651;SDS011;43480;53.116;6.734;2024-02-28T05:52:50;51.95;;;25.08;;
57651;SDS011;43480;53.116;6.734;2024-02-28T05:55:16;46.03;;;23.42;;
57651;SDS011;43480;53.116;6.734;2024-02-28T05:57:42;45.67;;;22.15;;
57651;SDS011;43480;53.116;6.734;2024-02-28T06:00:08;50.30;;;25.08;;
57651;SDS011;43480;53.116;6.734;2024-02-28T06:02:37;42.35;;;24.38;;
57651;SDS011;43480;53.116;6.734;2024-02-28T06:05:03;47.95;;;24.70;;
57651;SDS011;43480;53.116;6.734;2024-02-28T06:07:30;52.50;;;25.50;;
57651;SDS011;43480;53.116;6.734;2024-02-28T06:09:55;46.00;;;23.80;;
57651;SDS011;43480;53.116;6.734;2024-02-28T06:12:22;41.97;;;22.27;;
57651;SDS011;43480;53.116;6.734;2024-02-28T06:14:47;51.45;;;23.88;;
57651;SDS011;43480;53.116;6.734;2024-02-28T06:17:13;54.58;;;24.98;;
57651;SDS011;43480;53.116;6.734;2024-02-28T06:19:39;45.53;;;22.58;;
57651;SDS011;43480;53.116;6.734;2024-02-28T06:22:05;48.78;;;24.35;;
57651;SDS011;43480;53.116;6.734;2024-02-28T06:24:33;46.85;;;26.17;;
57651;SDS011;43480;53.116;6.734;2024-02-28T06:26:59;49.25;;;22.85;;
57651;SDS011;43480;53.116;6.734;2024-02-28T06:29:25;47.30;;;25.65;;
57651;SDS011;43480;53.116;6.734;2024-02-28T06:31:51;46.85;;;24.23;;
57651;SDS011;43480;53.116;6.734;2024-02-28T06:34:17;52.42;;;25.20;;
57651;SDS011;43480;53.116;6.734;2024-02-28T06:36:43;48.70;;;26.40;;
57651;SDS011;43480;53.116;6.734;2024-02-28T06:39:09;54.65;;;25.02;;
57651;SDS011;43480;53.116;6.734;2024-02-28T06:41:35;53.28;;;25.55;;
57651;SDS011;43480;53.116;6.734;2024-02-28T06:44:00;57.08;;;27.40;;
57651;SDS011;43480;53.116;6.734;2024-02-28T06:46:26;52.30;;;25.67;;
57651;SDS011;43480;53.116;6.734;2024-02-28T06:48:52;59.78;;;31.48;;
57651;SDS011;43480;53.116;6.734;2024-02-28T06:51:18;64.22;;;38.60;;
57651;SDS011;43480;53.116;6.734;2024-02-28T06:53:43;69.22;;;36.50;;
57651;SDS011;43480;53.116;6.734;2024-02-28T06:56:09;68.82;;;37.10;;
57651;SDS011;43480;53.116;6.734;2024-02-28T06:58:35;74.07;;;43.08;;
57651;SDS011;43480;53.116;6.734;2024-02-28T07:01:01;70.00;;;40.30;;
57651;SDS011;43480;53.116;6.734;2024-02-28T07:03:26;67.03;;;33.58;;
57651;SDS011;43480;53.116;6.734;2024-02-28T07:05:52;63.10;;;36.88;;
57651;SDS011;43480;53.116;6.734;2024-02-28T07:08:19;73.35;;;41.95;;
57651;SDS011;43480;53.116;6.734;2024-02-28T07:10:46;84.93;;;50.55;;
57651;SDS011;43480;53.116;6.734;2024-02-28T07:13:14;64.90;;;37.40;;
57651;SDS011;43480;53.116;6.734;2024-02-28T07:15:40;52.60;;;28.60;;
57651;SDS011;43480;53.116;6.734;2024-02-28T07:18:06;52.35;;;28.45;;
57651;SDS011;43480;53.116;6.734;2024-02-28T07:20:32;64.20;;;33.63;;
57651;SDS011;43480;53.116;6.734;2024-02-28T07:22:58;58.40;;;30.17;;
57651;SDS011;43480;53.116;6.734;2024-02-28T07:25:24;52.20;;;29.33;;
57651;SDS011;43480;53.116;6.734;2024-02-28T07:27:50;49.97;;;27.02;;
57651;SDS011;43480;53.116;6.734;2024-02-28T07:30:16;62.10;;;35.55;;
57651;SDS011;43480;53.116;6.734;2024-02-28T07:32:41;61.10;;;38.03;;
57651;SDS011;43480;53.116;6.734;2024-02-28T07:35:07;57.75;;;34.38;;
57651;SDS011;43480;53.116;6.734;2024-02-28T07:37:33;53.78;;;30.25;;
57651;SDS011;43480;53.116;6.734;2024-02-28T07:39:58;45.65;;;25.00;;
57651;SDS011;43480;53.116;6.734;2024-02-28T07:42:24;52.38;;;25.50;;
57651;SDS011;43480;53.116;6.734;2024-02-28T07:44:51;51.72;;;27.17;;
57651;SDS011;43480;53.116;6.734;2024-02-28T07:47:21;50.78;;;25.65;;
57651;SDS011;43480;53.116;6.734;2024-02-28T07:49:47;49.50;;;26.55;;
57651;SDS011;43480;53.116;6.734;2024-02-28T07:52:14;47.55;;;27.40;;
57651;SDS011;43480;53.116;6.734;2024-02-28T07:54:43;52.38;;;27.67;;
57651;SDS011;43480;53.116;6.734;2024-02-28T07:57:09;45.80;;;25.52;;
57651;SDS011;43480;53.116;6.734;2024-02-28T07:59:41;46.00;;;25.33;;
57651;SDS011;43480;53.116;6.734;2024-02-28T08:04:33;45.70;;;25.23;;
57651;SDS011;43480;53.116;6.734;2024-02-28T08:06:59;50.35;;;26.10;;
57651;SDS011;43480;53.116;6.734;2024-02-28T08:09:25;50.47;;;26.67;;
57651;SDS011;43480;53.116;6.734;2024-02-28T08:11:54;44.55;;;25.50;;
57651;SDS011;43480;53.116;6.734;2024-02-28T08:14:19;49.33;;;27.13;;
57651;SDS011;43480;53.116;6.734;2024-02-28T08:16:45;46.50;;;25.50;;
57651;SDS011;43480;53.116;6.734;2024-02-28T08:19:11;47.50;;;24.85;;
57651;SDS011;43480;53.116;6.734;2024-02-28T08:21:37;46.90;;;25.42;;
57651;SDS011;43480;53.116;6.734;2024-02-28T08:24:02;45.40;;;23.70;;
57651;SDS011;43480;53.116;6.734;2024-02-28T08:26:32;53.22;;;30.77;;
57651;SDS011;43480;53.116;6.734;2024-02-28T08:28:58;52.45;;;27.17;;
57651;SDS011;43480;53.116;6.734;2024-02-28T08:31:24;48.67;;;24.90;;
57651;SDS011;43480;53.116;6.734;2024-02-28T08:33:49;45.95;;;25.10;;
57651;SDS011;43480;53.116;6.734;2024-02-28T08:36:15;50.45;;;27.77;;
57651;SDS011;43480;53.116;6.734;2024-02-28T08:38:41;46.45;;;24.63;;
57651;SDS011;43480;53.116;6.734;2024-02-28T08:41:07;45.40;;;26.77;;
57651;SDS011;43480;53.116;6.734;2024-02-28T08:43:39;50.65;;;25.58;;
57651;SDS011;43480;53.116;6.734;2024-02-28T08:46:05;50.58;;;28.10;;
57651;SDS011;43480;53.116;6.734;2024-02-28T08:48:32;47.00;;;26.35;;
57651;SDS011;43480;53.116;6.734;2024-02-28T08:50:58;51.28;;;25.23;;
57651;SDS011;43480;53.116;6.734;2024-02-28T08:53:23;47.70;;;24.75;;
57651;SDS011;43480;53.116;6.734;2024-02-28T08:55:49;47.28;;;25.55;;
57651;SDS011;43480;53.116;6.734;2024-02-28T08:58:15;56.35;;;28.35;;
57651;SDS011;43480;53.116;6.734;2024-02-28T09:00:40;56.08;;;29.00;;
57651;SDS011;43480;53.116;6.734;2024-02-28T09:03:06;47.67;;;28.42;;
57651;SDS011;43480;53.116;6.734;2024-02-28T09:05:32;46.53;;;26.38;;
57651;SDS011;43480;53.116;6.734;2024-02-28T09:07:57;47.30;;;25.20;;
57651;SDS011;43480;53.116;6.734;2024-02-28T09:10:23;55.72;;;28.08;;
57651;SDS011;43480;53.116;6.734;2024-02-28T09:12:52;50.75;;;26.92;;
57651;SDS011;43480;53.116;6.734;2024-02-28T09:15:18;49.90;;;29.25;;
57651;SDS011;43480;53.116;6.734;2024-02-28T09:17:44;50.70;;;30.83;;
57651;SDS011;43480;53.116;6.734;2024-02-28T09:20:10;51.97;;;30.42;;
57651;SDS011;43480;53.116;6.734;2024-02-28T09:22:36;49.25;;;31.13;;
57651;SDS011;43480;53.116;6.734;2024-02-28T09:25:03;54.60;;;30.13;;
57651;SDS011;43480;53.116;6.734;2024-02-28T09:27:29;53.03;;;30.17;;
57651;SDS011;43480;53.116;6.734;2024-02-28T09:29:58;50.83;;;28.17;;
57651;SDS011;43480;53.116;6.734;2024-02-28T09:32:23;48.35;;;28.75;;
57651;SDS011;43480;53.116;6.734;2024-02-28T09:34:49;46.90;;;27.30;;
57651;SDS011;43480;53.116;6.734;2024-02-28T09:37:15;50.47;;;27.75;;
57651;SDS011;43480;53.116;6.734;2024-02-28T09:39:42;51.08;;;28.17;;
57651;SDS011;43480;53.116;6.734;2024-02-28T09:42:08;44.15;;;28.10;;
57651;SDS011;43480;53.116;6.734;2024-02-28T09:44:35;45.67;;;25.52;;
57651;SDS011;43480;53.116;6.734;2024-02-28T09:47:01;40.67;;;25.77;;
57651;SDS011;43480;53.116;6.734;2024-02-28T09:49:29;48.40;;;26.85;;
57651;SDS011;43480;53.116;6.734;2024-02-28T09:51:56;40.47;;;24.80;;
57651;SDS011;43480;53.116;6.734;2024-02-28T09:54:23;48.50;;;29.08;;
57651;SDS011;43480;53.116;6.734;2024-02-28T09:56:49;50.95;;;29.83;;
57651;SDS011;43480;53.116;6.734;2024-02-28T09:59:15;45.40;;;29.15;;
57651;SDS011;43480;53.116;6.734;2024-02-28T10:01:44;46.22;;;28.77;;
57651;SDS011;43480;53.116;6.734;2024-02-28T10:04:26;47.72;;;27.05;;
57651;SDS011;43480;53.116;6.734;2024-02-28T10:06:55;50.63;;;29.03;;
57651;SDS011;43480;53.116;6.734;2024-02-28T10:09:21;43.60;;;27.35;;
57651;SDS011;43480;53.116;6.734;2024-02-28T10:11:47;38.03;;;25.15;;
57651;SDS011;43480;53.116;6.734;2024-02-28T10:14:17;41.38;;;26.45;;
57651;SDS011;43480;53.116;6.734;2024-02-28T10:16:46;39.85;;;24.88;;
57651;SDS011;43480;53.116;6.734;2024-02-28T10:19:12;40.67;;;23.98;;
57651;SDS011;43480;53.116;6.734;2024-02-28T10:21:37;41.35;;;26.73;;
57651;SDS011;43480;53.116;6.734;2024-02-28T10:24:04;40.60;;;26.20;;
57651;SDS011;43480;53.116;6.734;2024-02-28T10:26:30;44.80;;;24.83;;
57651;SDS011;43480;53.116;6.734;2024-02-28T10:29:00;42.67;;;25.20;;
57651;SDS011;43480;53.116;6.734;2024-02-28T10:31:28;41.83;;;25.20;;
57651;SDS011;43480;53.116;6.734;2024-02-28T10:33:57;40.42;;;25.20;;
57651;SDS011;43480;53.116;6.734;2024-02-28T10:36:23;41.55;;;24.50;;
57651;SDS011;43480;53.116;6.734;2024-02-28T10:38:49;39.83;;;24.08;;
57651;SDS011;43480;53.116;6.734;2024-02-28T10:41:15;37.53;;;25.75;;
57651;SDS011;43480;53.116;6.734;2024-02-28T10:43:41;45.47;;;25.90;;
57651;SDS011;43480;53.116;6.734;2024-02-28T10:46:08;41.80;;;25.17;;
57651;SDS011;43480;53.116;6.734;2024-02-28T10:48:34;36.70;;;24.83;;
57651;SDS011;43480;53.116;6.734;2024-02-28T10:51:00;45.15;;;26.00;;
57651;SDS011;43480;53.116;6.734;2024-02-28T10:53:35;41.88;;;27.05;;
57651;SDS011;43480;53.116;6.734;2024-02-28T10:56:05;42.83;;;25.35;;
57651;SDS011;43480;53.116;6.734;2024-02-28T10:58:40;35.75;;;23.50;;
57651;SDS011;43480;53.116;6.734;2024-02-28T11:01:15;38.45;;;24.67;;
57651;SDS011;43480;53.116;6.734;2024-02-28T11:03:42;40.75;;;24.75;;
57651;SDS011;43480;53.116;6.734;2024-02-28T11:06:19;41.65;;;24.95;;
57651;SDS011;43480;53.116;6.734;2024-02-28T11:08:47;38.88;;;24.25;;
57651;SDS011;43480;53.116;6.734;2024-02-28T11:11:18;41.83;;;24.42;;
57651;SDS011;43480;53.116;6.734;2024-02-28T11:13:55;40.13;;;25.10;;
57651;SDS011;43480;53.116;6.734;2024-02-28T11:16:31;40.60;;;24.98;;
57651;SDS011;43480;53.116;6.734;2024-02-28T11:18:58;40.40;;;26.92;;
57651;SDS011;43480;53.116;6.734;2024-02-28T11:21:29;41.17;;;25.92;;
57651;SDS011;43480;53.116;6.734;2024-02-28T11:23:58;39.15;;;23.95;;
57651;SDS011;43480;53.116;6.734;2024-02-28T11:26:25;38.80;;;25.40;;
57651;SDS011;43480;53.116;6.734;2024-02-28T11:28:52;39.22;;;23.92;;
57651;SDS011;43480;53.116;6.734;2024-02-28T11:31:20;38.08;;;23.42;;
57651;SDS011;43480;53.116;6.734;2024-02-28T11:33:46;42.92;;;24.48;;
57651;SDS011;43480;53.116;6.734;2024-02-28T11:36:12;39.22;;;24.95;;
57651;SDS011;43480;53.116;6.734;2024-02-28T11:38:41;41.17;;;23.88;;
57651;SDS011;43480;53.116;6.734;2024-02-28T11:41:06;41.38;;;25.65;;
57651;SDS011;43480;53.116;6.734;2024-02-28T11:43:33;40.45;;;24.95;;
57651;SDS011;43480;53.116;6.734;2024-02-28T11:46:02;40.75;;;25.83;;
57651;SDS011;43480;53.116;6.734;2024-02-28T11:48:34;46.17;;;25.83;;
57651;SDS011;43480;53.116;6.734;2024-02-28T11:51:00;39.15;;;24.38;;
57651;SDS011;43480;53.116;6.734;2024-02-28T11:53:26;36.95;;;25.25;;
57651;SDS011;43480;53.116;6.734;2024-02-28T11:55:52;40.50;;;24.27;;
57651;SDS011;43480;53.116;6.734;2024-02-28T11:58:18;39.20;;;26.50;;
57651;SDS011;43480;53.116;6.734;2024-02-28T12:00:49;59.83;;;38.08;;
57651;SDS011;43480;53.116;6.734;2024-02-28T12:03:22;88.80;;;52.58;;
57651;SDS011;43480;53.116;6.734;2024-02-28T12:05:48;44.33;;;29.00;;
57651;SDS011;43480;53.116;6.734;2024-02-28T12:08:15;39.97;;;27.63;;
57651;SDS011;43480;53.116;6.734;2024-02-28T12:10:44;41.67;;;26.20;;
57651;SDS011;43480;53.116;6.734;2024-02-28T12:13:11;40.08;;;25.33;;
57651;SDS011;43480;53.116;6.734;2024-02-28T12:15:38;35.15;;;24.98;;
57651;SDS011;43480;53.116;6.734;2024-02-28T12:18:09;36.08;;;24.42;;
57651;SDS011;43480;53.116;6.734;2024-02-28T12:20:36;35.28;;;25.20;;
57651;SDS011;43480;53.116;6.734;2024-02-28T12:23:04;37.90;;;25.00;;
57651;SDS011;43480;53.116;6.734;2024-02-28T12:25:30;38.63;;;24.80;;
57651;SDS011;43480;53.116;6.734;2024-02-28T12:27:56;33.17;;;24.65;;
57651;SDS011;43480;53.116;6.734;2024-02-28T12:30:22;32.92;;;24.10;;
57651;SDS011;43480;53.116;6.734;2024-02-28T12:32:47;39.92;;;25.33;;
57651;SDS011;43480;53.116;6.734;2024-02-28T12:35:13;36.63;;;24.13;;
57651;SDS011;43480;53.116;6.734;2024-02-28T12:37:38;33.38;;;24.10;;
57651;SDS011;43480;53.116;6.734;2024-02-28T12:40:05;32.42;;;24.35;;
57651;SDS011;43480;53.116;6.734;2024-02-28T12:42:31;38.78;;;24.20;;
57651;SDS011;43480;53.116;6.734;2024-02-28T12:44:57;38.03;;;25.13;;
57651;SDS011;43480;53.116;6.734;2024-02-28T12:47:23;37.78;;;24.52;;
57651;SDS011;43480;53.116;6.734;2024-02-28T12:49:48;35.72;;;24.38;;
57651;SDS011;43480;53.116;6.734;2024-02-28T12:52:14;32.22;;;23.48;;
57651;SDS011;43480;53.116;6.734;2024-02-28T12:54:40;37.90;;;24.92;;
57651;SDS011;43480;53.116;6.734;2024-02-28T12:57:05;36.50;;;25.23;;
57651;SDS011;43480;53.116;6.734;2024-02-28T12:59:33;34.25;;;22.65;;
57651;SDS011;43480;53.116;6.734;2024-02-28T13:01:59;34.20;;;24.30;;
57651;SDS011;43480;53.116;6.734;2024-02-28T13:04:25;34.67;;;24.98;;
57651;SDS011;43480;53.116;6.734;2024-02-28T13:06:51;37.40;;;26.02;;
57651;SDS011;43480;53.116;6.734;2024-02-28T13:09:18;36.40;;;24.88;;
57651;SDS011;43480;53.116;6.734;2024-02-28T13:11:44;33.28;;;24.70;;
57651;SDS011;43480;53.116;6.734;2024-02-28T13:14:10;37.75;;;24.88;;
57651;SDS011;43480;53.116;6.734;2024-02-28T13:16:36;37.08;;;24.58;;
57651;SDS011;43480;53.116;6.734;2024-02-28T13:19:02;34.78;;;24.25;;
57651;SDS011;43480;53.116;6.734;2024-02-28T13:21:29;34.17;;;23.42;;
57651;SDS011;43480;53.116;6.734;2024-02-28T13:23:57;32.80;;;25.40;;
57651;SDS011;43480;53.116;6.734;2024-02-28T13:26:23;34.22;;;23.33;;
57651;SDS011;43480;53.116;6.734;2024-02-28T13:28:49;31.42;;;24.63;;
57651;SDS011;43480;53.116;6.734;2024-02-28T13:31:15;34.20;;;23.13;;
57651;SDS011;43480;53.116;6.734;2024-02-28T13:33:41;32.08;;;23.45;;
57651;SDS011;43480;53.116;6.734;2024-02-28T13:36:07;32.55;;;23.98;;
57651;SDS011;43480;53.116;6.734;2024-02-28T13:38:33;36.67;;;25.25;;
57651;SDS011;43480;53.116;6.734;2024-02-28T13:40:59;33.17;;;24.75;;
57651;SDS011;43480;53.116;6.734;2024-02-28T13:43:25;33.80;;;24.45;;
57651;SDS011;43480;53.116;6.734;2024-02-28T13:45:51;34.92;;;24.55;;
57651;SDS011;43480;53.116;6.734;2024-02-28T13:48:17;33.80;;;26.25;;
57651;SDS011;43480;53.116;6.734;2024-02-28T13:50:46;31.40;;;23.58;;
57651;SDS011;43480;53.116;6.734;2024-02-28T13:53:12;32.15;;;24.40;;
57651;SDS011;43480;53.116;6.734;2024-02-28T13:55:40;32.97;;;24.50;;
57651;SDS011;43480;53.116;6.734;2024-02-28T13:58:08;35.08;;;25.25;;
57651;SDS011;43480;53.116;6.734;2024-02-28T14:00:36;31.25;;;24.10;;
57651;SDS011;43480;53.116;6.734;2024-02-28T14:03:02;36.17;;;24.63;;
57651;SDS011;43480;53.116;6.734;2024-02-28T14:05:28;36.00;;;25.33;;
57651;SDS011;43480;53.116;6.734;2024-02-28T14:07:54;33.28;;;26.25;;
57651;SDS011;43480;53.116;6.734;2024-02-28T14:10:20;31.30;;;24.85;;
57651;SDS011;43480;53.116;6.734;2024-02-28T14:12:47;36.92;;;26.70;;
57651;SDS011;43480;53.116;6.734;2024-02-28T14:15:12;34.63;;;25.23;;
57651;SDS011;43480;53.116;6.734;2024-02-28T14:17:38;36.83;;;26.85;;
57651;SDS011;43480;53.116;6.734;2024-02-28T14:20:04;33.97;;;25.98;;